Flight Track Log - Related Links

Times and Time Zones

All times are in EST time to prevent confusion due to time zone crossing. See the HS-TGY flight status page for this flight to view local times or setup timezone preferences in your user account.

Time Position Orientation Groundspeed Altitude Reporting Facility
EST Latitude Longitude Course Direction KTS MPH feet Rate Location/Type
Wed 06:13:32 PM -33.9573 151.1790 349° North 100 115  Level FlightAware ADS-B (YSSY / SYD)
Wed 06:13:51 PM -33.9443 151.1755 348° North 169 194 514 Level FlightAware ADS-B (YSSY / SYD)
Wed 06:14:07 PM -33.9317 151.1722 348° North 185 213 300 2,057 Climbing FlightAware ADS-B (KCLL)
Wed 06:14:26 PM -33.9179 151.1688 348° North 186 214 1,200 2,500 Climbing FlightAware ADS-B
Wed 06:14:43 PM -33.9007 151.1634 345° North 189 217 1,800 2,160 Climbing FlightAware ADS-B (YRAY)
Wed 06:14:51 PM -33.8950 151.1598 332° Northwest 194 223 2,100 2,211 Climbing FlightAware ADS-B (YSSY / SYD)
Wed 06:15:02 PM -33.8873 151.1518 319° Northwest 199 229 2,500 2,000 Climbing FlightAware ADS-B (YRAY)
Wed 06:15:18 PM -33.8771 151.1388 313° West 197 227 3,000 1,636 Climbing FlightAware ADS-B (KCLL)
Wed 06:15:35 PM -33.8664 151.1242 311° West 219 252 3,400 968 Climbing FlightAware ADS-B (YRAY)
Wed 06:15:49 PM -33.8559 151.1110 314° West 239 275 3,500 800 Climbing FlightAware ADS-B (YSSY / SYD)
Wed 06:16:05 PM -33.8441 151.0956 313° West 255 293 3,800 1,688 Climbing FlightAware ADS-B (KFRR)
Wed 06:16:21 PM -33.8315 151.0792 313° West 277 319 4,400 1,750 Climbing FlightAware ADS-B (KFRR)
Wed 06:16:29 PM -33.8227 151.0678 313° West 282 325 4,500 2,160 Climbing FlightAware ADS-B (YSSY / SYD)
Wed 06:16:46 PM -33.8077 151.0480 312° West 285 328 5,300 3,081 Climbing FlightAware ADS-B
Wed 06:17:06 PM -33.7898 151.0246 313° West 285 328 6,400 3,333 Climbing FlightAware ADS-B
Wed 06:17:22 PM -33.7754 151.0060 313° West 287 330 7,300 3,086 Climbing FlightAware ADS-B (KFRR)
Wed 06:17:41 PM -33.7576 150.9837 314° West 288 331 8,200 2,684 Climbing FlightAware ADS-B (KFRR)
Wed 06:18:00 PM -33.7397 150.9599 312° West 296 341 9,000 2,550 Climbing FlightAware ADS-B (KFRR)
Wed 06:18:21 PM -33.7208 150.9356 313° West 301 346 9,900 1,925 Climbing FlightAware ADS-B (KFRR)
Wed 06:18:53 PM -33.6875 150.8932 313° West 332 382 10,700 1,754 Climbing FlightAware ADS-B (KFRR)
Wed 06:19:26 PM -33.6525 150.8483 313° West 352 405 11,800 2,545 Climbing FlightAware ADS-B
Wed 06:19:59 PM -33.6169 150.8032 314° West 365 420 13,500 2,746 Climbing FlightAware ADS-B (KFRR)
Wed 06:20:25 PM -33.5874 150.7591 309° West 369 425 14,500 2,597 Climbing FlightAware ADS-B (KCLL)
Wed 06:21:06 PM -33.5484 150.6884 303° West 377 434 16,400 3,143 Climbing FlightAware ADS-B
Wed 06:21:28 PM -33.5267 150.6477 303° West 386 444 17,800 2,491 Climbing FlightAware ADS-B (KFRR)
Wed 06:21:59 PM -33.4979 150.5950 303° West 395 455 18,600 2,000 Climbing FlightAware ADS-B
Wed 06:22:43 PM -33.4514 150.5114 304° West 407 468 20,300 2,260 Climbing FlightAware ADS-B
Wed 06:23:16 PM -33.4170 150.4484 303° West 417 480 21,500 1,605 Climbing FlightAware ADS-B (KCLL)
Wed 06:24:09 PM -33.3595 150.3427 303° West 449 517 22,600 1,187 Climbing FlightAware ADS-B (YPLB)
Wed 06:24:47 PM -33.3118 150.2568 304° West 475 547 23,300 1,579 Climbing FlightAware ADS-B (YPLB)
Wed 06:25:25 PM -33.2743 150.1878 303° West 484 557 24,600 1,500 Climbing FlightAware ADS-B (YPLB)
Wed 06:32:47 PM -32.7254 149.2083 304° West 463 533 35,300 475 Climbing Aus ATC (RADAR)
Wed 06:47:20 PM -31.6583 147.3727 308° West 461 531 35,000 Descending Aus ATC (RADAR)
Wed 06:48:00 PM -31.4888 147.3039 308° West  Level Estimated
Wed 06:49:00 PM -31.5242 147.1653 318° Northwest  Level FlightAware Approximate
Wed 06:56:00 PM -30.8272 146.4369 318° Northwest  Level FlightAware Approximate
Wed 06:57:00 PM -30.7273 146.3338 318° Northwest  Level FlightAware Approximate
Wed 06:58:00 PM -30.6273 146.2308 318° Northwest  Level FlightAware Approximate
Wed 06:59:00 PM -30.5272 146.1280 318° Northwest  Level FlightAware Approximate
Wed 07:00:00 PM -30.4271 146.0255 319° Northwest  Level FlightAware Approximate
Wed 07:01:00 PM -30.3268 145.9232 319° Northwest  Level FlightAware Approximate
Wed 07:02:00 PM -30.2265 145.8210 319° Northwest  Level FlightAware Approximate
Wed 07:03:00 PM -30.1261 145.7191 319° Northwest  Level FlightAware Approximate
Wed 07:04:00 PM -30.0257 145.6174 319° Northwest  Level FlightAware Approximate
Wed 07:05:00 PM -29.9251 145.5159 319° Northwest  Level FlightAware Approximate
Wed 07:06:00 PM -29.8245 145.4146 319° Northwest  Level FlightAware Approximate
Wed 07:07:00 PM -29.7238 145.3135 319° Northwest  Level FlightAware Approximate
Wed 07:08:00 PM -29.6230 145.2126 319° Northwest  Level FlightAware Approximate
Wed 07:09:00 PM -29.5222 145.1119 319° Northwest  Level FlightAware Approximate
Wed 07:10:00 PM -29.4212 145.0114 319° Northwest  Level FlightAware Approximate
Wed 07:10:44 PM -29.2800 144.8714 319° Northwest 35,000  Level Aus ATC (Calculated)
Wed 07:11:00 PM -29.3202 144.9111 319° Northwest  Level FlightAware Approximate
Wed 07:12:00 PM -29.2192 144.8111 319° Northwest  Level FlightAware Approximate
Wed 07:13:00 PM -29.0861 144.5977 319° Northwest  Level Estimated
Wed 07:14:00 PM -28.9823 144.4977 320° Northwest  Level FlightAware Approximate
Wed 07:15:00 PM -28.8784 144.3980 320° Northwest  Level FlightAware Approximate
Wed 07:16:00 PM -28.7744 144.2984 320° Northwest  Level FlightAware Approximate
Wed 07:17:00 PM -28.6704 144.1990 320° Northwest  Level FlightAware Approximate
Wed 07:18:00 PM -28.5663 144.0998 320° Northwest  Level FlightAware Approximate
Wed 07:19:00 PM -28.4621 144.0008 320° Northwest  Level FlightAware Approximate
Wed 07:20:00 PM -28.3578 143.9020 320° Northwest  Level FlightAware Approximate
Wed 07:21:00 PM -28.2535 143.8034 320° Northwest  Level FlightAware Approximate
Wed 07:22:00 PM -28.1491 143.7050 320° Northwest  Level FlightAware Approximate
Wed 07:23:00 PM -28.0446 143.6068 320° Northwest  Level FlightAware Approximate
Wed 07:24:00 PM -27.9401 143.5088 320° Northwest  Level FlightAware Approximate
Wed 07:25:00 PM -27.8355 143.4109 320° Northwest  Level FlightAware Approximate
Wed 07:26:00 PM -27.7308 143.3133 320° Northwest  Level FlightAware Approximate
Wed 07:27:00 PM -27.6260 143.2158 320° Northwest  Level FlightAware Approximate
Wed 07:28:00 PM -27.5212 143.1185 321° Northwest  Level FlightAware Approximate
Wed 07:29:00 PM -27.4163 143.0215 321° Northwest  Level FlightAware Approximate
Wed 07:30:00 PM -27.3114 142.9245 321° Northwest  Level FlightAware Approximate
Wed 07:31:00 PM -27.2064 142.8278 321° Northwest  Level FlightAware Approximate
Wed 07:32:00 PM -27.1013 142.7313 321° Northwest  Level FlightAware Approximate
Wed 07:33:00 PM -26.9961 142.6349 321° Northwest  Level FlightAware Approximate
Wed 07:34:00 PM -26.8909 142.5388 321° Northwest  Level FlightAware Approximate
Wed 07:35:00 PM -26.7856 142.4427 321° Northwest  Level FlightAware Approximate
Wed 07:36:00 PM -26.6803 142.3469 321° Northwest  Level FlightAware Approximate
Wed 07:37:00 PM -26.5749 142.2513 321° Northwest  Level FlightAware Approximate
Wed 07:38:00 PM -26.4694 142.1558 321° Northwest  Level FlightAware Approximate
Wed 07:39:00 PM -26.3638 142.0605 321° Northwest  Level FlightAware Approximate
Wed 07:40:00 PM -26.2582 141.9654 321° Northwest  Level FlightAware Approximate
Wed 07:41:00 PM -26.1526 141.8705 321° Northwest  Level FlightAware Approximate
Wed 07:42:00 PM -26.0469 141.7757 321° Northwest  Level FlightAware Approximate
Wed 07:43:00 PM -25.9411 141.6811 321° Northwest  Level FlightAware Approximate
Wed 07:44:00 PM -25.8352 141.5867 321° Northwest  Level FlightAware Approximate
Wed 07:45:00 PM -25.7293 141.4924 321° Northwest  Level FlightAware Approximate
Wed 07:46:00 PM -25.6233 141.3983 321° Northwest  Level FlightAware Approximate
Wed 07:47:00 PM -25.5173 141.3044 321° Northwest  Level FlightAware Approximate
Wed 07:48:00 PM -25.4112 141.2106 321° Northwest  Level FlightAware Approximate
Wed 07:49:00 PM -25.3237 141.0957 321° Northwest  Level Estimated
Wed 07:50:00 PM -25.2180 141.0016 321° Northwest  Level FlightAware Approximate
Wed 07:51:00 PM -25.1122 140.9077 321° Northwest  Level FlightAware Approximate
Wed 07:52:00 PM -25.0063 140.8139 321° Northwest  Level FlightAware Approximate
Wed 07:53:00 PM -24.9004 140.7204 321° Northwest  Level FlightAware Approximate
Wed 07:54:00 PM -24.7944 140.6269 321° Northwest  Level FlightAware Approximate
Wed 07:55:00 PM -24.6884 140.5336 321° Northwest  Level FlightAware Approximate
Wed 07:56:00 PM -24.5823 140.4405 321° Northwest  Level FlightAware Approximate
Wed 07:57:00 PM -24.4761 140.3475 321° Northwest  Level FlightAware Approximate
Wed 07:58:00 PM -24.3699 140.2547 321° Northwest  Level FlightAware Approximate
Wed 07:59:00 PM -24.2637 140.1621 322° Northwest  Level FlightAware Approximate
Wed 08:00:00 PM -24.1573 140.0696 322° Northwest  Level FlightAware Approximate
Wed 08:01:00 PM -24.0510 139.9772 322° Northwest  Level FlightAware Approximate
Wed 08:02:00 PM -23.9445 139.8851 322° Northwest  Level FlightAware Approximate
Wed 08:03:00 PM -23.8380 139.7930 322° Northwest  Level FlightAware Approximate
Wed 08:04:00 PM -23.7315 139.7011 322° Northwest  Level FlightAware Approximate
Wed 08:05:00 PM -23.6249 139.6094 322° Northwest  Level FlightAware Approximate
Wed 08:06:00 PM -23.5182 139.5178 322° Northwest  Level FlightAware Approximate
Wed 08:07:00 PM -23.4115 139.4263 322° Northwest  Level FlightAware Approximate
Wed 08:08:00 PM -23.3048 139.3351 322° Northwest  Level FlightAware Approximate
Wed 08:09:00 PM -23.1980 139.2439 322° Northwest  Level FlightAware Approximate
Wed 08:10:00 PM -23.0911 139.1529 322° Northwest  Level FlightAware Approximate
Wed 08:11:00 PM -22.9842 139.0621 322° Northwest  Level FlightAware Approximate
Wed 08:12:00 PM -22.8772 138.9713 322° Northwest  Level FlightAware Approximate
Wed 08:13:00 PM -22.7702 138.8808 322° Northwest  Level FlightAware Approximate
Wed 08:14:00 PM -22.6631 138.7903 322° Northwest  Level FlightAware Approximate
Wed 08:15:00 PM -22.5560 138.7000 322° Northwest  Level FlightAware Approximate
Wed 08:16:00 PM -22.4488 138.6099 322° Northwest  Level FlightAware Approximate
Wed 08:17:00 PM -22.3416 138.5199 322° Northwest  Level FlightAware Approximate
Wed 08:18:00 PM -22.2344 138.4300 322° Northwest  Level FlightAware Approximate
Wed 08:19:00 PM -22.1270 138.3403 322° Northwest  Level FlightAware Approximate
Wed 08:20:00 PM -22.0197 138.2507 322° Northwest  Level FlightAware Approximate
Wed 08:21:00 PM -21.9122 138.1612 322° Northwest  Level FlightAware Approximate
Wed 08:22:00 PM -21.8048 138.0719 322° Northwest  Level FlightAware Approximate
Wed 08:23:00 PM -21.6973 137.9827 322° Northwest  Level FlightAware Approximate
Wed 08:24:00 PM -21.6087 137.8721 322° Northwest  Level Estimated
Wed 08:25:00 PM -21.4998 137.7850 323° Northwest  Level FlightAware Approximate
Wed 08:26:00 PM -21.3908 137.6981 323° Northwest  Level FlightAware Approximate
Wed 08:27:00 PM -21.2817 137.6114 323° Northwest  Level FlightAware Approximate
Wed 08:28:00 PM -21.1726 137.5247 323° Northwest  Level FlightAware Approximate
Wed 08:29:00 PM -21.0635 137.4382 323° Northwest  Level FlightAware Approximate
Wed 08:30:00 PM -20.9543 137.3518 324° Northwest  Level FlightAware Approximate
Wed 08:31:00 PM -20.8451 137.2655 324° Northwest  Level FlightAware Approximate
Wed 08:32:00 PM -20.7359 137.1794 324° Northwest  Level FlightAware Approximate
Wed 08:33:00 PM -20.6266 137.0934 324° Northwest  Level FlightAware Approximate
Wed 08:34:00 PM -20.5172 137.0075 324° Northwest  Level FlightAware Approximate
Wed 08:35:00 PM -20.4079 136.9217 324° Northwest  Level FlightAware Approximate
Wed 08:36:00 PM -20.2984 136.8361 324° Northwest  Level FlightAware Approximate
Wed 08:37:00 PM -20.2097 136.7266 323° Northwest  Level Estimated
Wed 08:38:00 PM -20.1008 136.6402 323° Northwest  Level FlightAware Approximate
Wed 08:39:00 PM -19.9920 136.5540 323° Northwest  Level FlightAware Approximate
Wed 08:40:00 PM -19.8830 136.4679 323° Northwest  Level FlightAware Approximate
Wed 08:40:23 PM -18.9773 135.7847 323° Northwest 35,000  Level Aus ATC (Calculated)
Wed 08:41:00 PM -19.7741 136.3819 323° Northwest  Level FlightAware Approximate
Wed 08:42:00 PM -19.6650 136.2960 323° Northwest  Level FlightAware Approximate
Wed 08:43:00 PM -19.5560 136.2102 323° Northwest  Level FlightAware Approximate
Wed 08:44:00 PM -19.4469 136.1245 323° Northwest  Level FlightAware Approximate
Wed 08:45:00 PM -18.4750 135.3892 323° Northwest  Level FlightAware Approximate
Wed 08:46:00 PM -18.3661 135.3038 323° Northwest  Level FlightAware Approximate
Wed 08:47:00 PM -18.2571 135.2186 323° Northwest  Level FlightAware Approximate
Wed 08:48:00 PM -18.1481 135.1334 323° Northwest  Level FlightAware Approximate
Wed 08:49:00 PM -18.0391 135.0484 323° Northwest  Level FlightAware Approximate
Wed 08:50:00 PM -17.9300 134.9635 323° Northwest  Level FlightAware Approximate
Wed 08:51:00 PM -17.8209 134.8786 323° Northwest  Level FlightAware Approximate
Wed 08:52:00 PM -17.7118 134.7939 324° Northwest  Level FlightAware Approximate
Wed 08:53:00 PM -17.6026 134.7093 324° Northwest  Level FlightAware Approximate
Wed 08:54:00 PM -17.4934 134.6248 324° Northwest  Level FlightAware Approximate
Wed 08:55:00 PM -17.3841 134.5403 324° Northwest  Level FlightAware Approximate
Wed 08:56:00 PM -17.2748 134.4560 324° Northwest  Level FlightAware Approximate
Wed 08:57:00 PM -17.1655 134.3718 324° Northwest  Level FlightAware Approximate
Wed 08:58:00 PM -17.0561 134.2877 324° Northwest  Level FlightAware Approximate
Wed 08:59:00 PM -16.9468 134.2037 324° Northwest  Level FlightAware Approximate
Wed 09:00:00 PM -16.8373 134.1198 324° Northwest  Level FlightAware Approximate
Wed 09:01:00 PM -16.7279 134.0359 324° Northwest  Level FlightAware Approximate
Wed 09:02:00 PM -16.6184 133.9522 324° Northwest  Level FlightAware Approximate
Wed 09:03:00 PM -16.5088 133.8686 324° Northwest  Level FlightAware Approximate
Wed 09:04:00 PM -16.6184 133.9522 144° Southeast  Level FlightAware Approximate
Wed 09:05:00 PM -16.5088 133.8686 324° Northwest  Level FlightAware Approximate
Wed 09:06:00 PM -16.6184 133.9522 144° Southeast  Level FlightAware Approximate
Wed 09:06:10 PM -15.9937 133.4789 144° Southeast 512 589 35,800  Level Aus ATC (RADAR)
Wed 09:07:50 PM -15.8018 133.3330 324° Northwest 501 577 35,800  Level Aus ATC (RADAR)
Wed 09:09:30 PM -15.6085 133.1867 324° Northwest 505 581 35,800  Level Aus ATC (RADAR)
Wed 09:11:25 PM -15.3875 133.0206 324° Northwest 501 577 35,800  Level Aus ATC (RADAR)
Wed 09:13:05 PM -15.1980 132.8789 324° Northwest 497 572 35,800  Level Aus ATC (RADAR)
Wed 09:14:50 PM -14.9983 132.7277 324° Northwest 503 579 35,800  Level Aus ATC (RADAR)
Wed 09:16:19 PM -14.8254 132.5993 324° Northwest 506 582 35,800  Level Aus ATC (RADAR)
Wed 09:18:19 PM -14.5924 132.4283 325° Northwest 515 593 35,800  Level Aus ATC (RADAR)
Wed 09:20:09 PM -14.3792 132.2712 324° Northwest 492 566 35,800  Level Aus ATC (RADAR)
Wed 09:21:39 PM -14.2033 132.1498 326° Northwest 491 565 35,800  Level Aus ATC (RADAR)
Wed 09:21:59 PM -14.1645 132.1225 326° Northwest 491 565 35,800  Level Aus ATC (RADAR)
Wed 09:25:03 PM -13.8067 131.8710 326° Northwest 492 566 35,800 65 Level Aus ATC (RADAR)
Wed 09:25:03 PM -13.8134 131.8747 326° Northwest 508 585 36,000 300 Climbing FlightAware ADS-B (EGPK / PIK)
Wed 09:25:43 PM -13.7295 131.8157 326° Northwest 509 586 36,000  Level FlightAware ADS-B (EGPK / PIK)
Wed 09:26:23 PM -13.6513 131.7610 326° Northwest 510 587 36,000  Level FlightAware ADS-B (EGPK / PIK)
Wed 09:27:03 PM -13.5768 131.7092 326° Northwest 510 587 36,000  Level FlightAware ADS-B (EGPK / PIK)
Wed 09:27:44 PM -13.4961 131.6532 326° Northwest 509 586 36,000  Level FlightAware ADS-B (EGPK / PIK)
Wed 09:28:23 PM -13.4195 131.5987 325° Northwest 507 583 36,000  Level FlightAware ADS-B (EGPK / PIK)
Wed 09:29:03 PM -13.3408 131.5444 326° Northwest 507 583 36,000  Level FlightAware ADS-B (EGPK / PIK)
Wed 09:29:42 PM -13.2653 131.4916 326° Northwest 506 582 36,000  Level FlightAware ADS-B (EGPK / PIK)
Wed 09:30:22 PM -13.1859 131.4361 326° Northwest 505 581 36,000  Level FlightAware ADS-B (EGPK / PIK)
Wed 09:31:03 PM -13.1109 131.3836 326° Northwest 503 579 36,000  Level FlightAware ADS-B (EGPK / PIK)
Wed 09:31:43 PM -13.0306 131.3287 326° Northwest 502 578 36,000  Level FlightAware ADS-B (EGPK / PIK)
Wed 09:32:23 PM -12.9533 131.2750 326° Northwest 501 577 36,000  Level FlightAware ADS-B (EGPK / PIK)
Wed 09:33:02 PM -12.8794 131.2229 325° Northwest 500 575 36,000  Level FlightAware ADS-B (EGPK / PIK)
Wed 09:33:43 PM -12.7989 131.1671 326° Northwest 500 575 36,000  Level FlightAware ADS-B (EGPK / PIK)
Wed 09:34:22 PM -12.7343 131.1231 326° Northwest 500 575 36,000  Level FlightAware ADS-B (EGPK / PIK)
Wed 09:35:02 PM -12.6533 131.0657 325° Northwest 502 578 36,000  Level FlightAware ADS-B (EGPK / PIK)
Wed 09:35:42 PM -12.5697 131.0083 326° Northwest 503 579 36,000  Level FlightAware ADS-B (EGPK / PIK)
Wed 09:36:22 PM -12.4940 130.9559 326° Northwest 504 580 36,000  Level FlightAware ADS-B (EGPK / PIK)
Wed 09:37:03 PM -12.4151 130.8968 324° Northwest 506 582 36,000  Level FlightAware ADS-B (EGPK / PIK)
Wed 09:37:37 PM -12.3610 130.8469 318° Northwest 507 583 36,000  Level FlightAware ADS-B (EGPK / PIK)
Wed 09:38:23 PM -12.2781 130.7675 317° Northwest 509 586 36,000  Level FlightAware ADS-B (EGPK / PIK)
Wed 09:39:01 PM -12.2126 130.7027 316° Northwest 509 586 36,000  Level FlightAware ADS-B (EGPK / PIK)
Wed 09:39:43 PM -12.1414 130.6347 317° Northwest 509 586 36,000  Level FlightAware ADS-B (EGPK / PIK)
Wed 09:40:23 PM -12.0734 130.5685 316° Northwest 509 586 36,000  Level FlightAware ADS-B (EGPK / PIK)
Wed 09:41:03 PM -12.0032 130.5006 317° Northwest 509 586 36,000  Level FlightAware ADS-B (EGPK / PIK)
Wed 09:41:43 PM -11.9350 130.4347 317° Northwest 508 585 36,000  Level FlightAware ADS-B (EGPK / PIK)
Wed 09:42:23 PM -11.8683 130.3704 317° Northwest 508 585 36,000  Level FlightAware ADS-B (EGPK / PIK)
Wed 09:43:03 PM -11.7975 130.3027 317° Northwest 509 586 36,000  Level FlightAware ADS-B (EGPK / PIK)
Wed 09:43:41 PM -11.7341 130.2418 317° Northwest 507 583 36,000  Level FlightAware ADS-B (EGPK / PIK)
Wed 09:44:23 PM -11.6608 130.1712 317° Northwest 505 581 36,000  Level FlightAware ADS-B (EGPK / PIK)
Wed 09:45:03 PM -11.5931 130.1057 317° Northwest 506 582 36,000  Level FlightAware ADS-B (EGPK / PIK)
Wed 09:45:43 PM -11.5250 130.0417 317° Northwest 507 583 36,000  Level FlightAware ADS-B (EGPK / PIK)
Wed 09:46:23 PM -11.4562 129.9744 316° Northwest 506 582 36,000  Level FlightAware ADS-B (EGPK / PIK)
Wed 09:47:03 PM -11.3892 129.9107 317° Northwest 506 582 36,000  Level FlightAware ADS-B (EGPK / PIK)
Wed 09:47:43 PM -11.3218 129.8453 316° Northwest 506 582 36,000  Level FlightAware ADS-B (EGPK / PIK)
Wed 09:48:22 PM -11.2531 129.7798 317° Northwest 507 583 36,000  Level FlightAware ADS-B (EGPK / PIK)
Wed 09:49:03 PM -11.2022 129.7322 317° Northwest 509 586 36,000 -135 Level FlightAware ADS-B (EGPK / PIK)
Wed 09:49:51 PM -11.1010 129.6323 317° Northwest 489 563 35,800 -90 Descending Aus ATC (RADAR)
Wed 09:51:16 PM -10.9546 129.4927 317° Northwest 491 565 35,800  Level Aus ATC (RADAR)
Wed 09:51:31 PM -10.9287 129.4678 317° Northwest 491 565 35,800  Level Aus ATC (RADAR)
Wed 09:53:06 PM -10.7643 129.3107 317° Northwest 493 567 35,800  Level Aus ATC (RADAR)
Wed 09:54:31 PM -10.6167 129.1694 317° Northwest 495 570 35,800  Level Aus ATC (RADAR)
Wed 09:54:51 PM -10.5797 129.1384 320° Northwest 496 571 35,800  Level Aus ATC (RADAR)
Wed 09:55:31 PM -10.5119 129.0697 315° West 496 571 35,800  Level Aus ATC (RADAR)
Wed 09:56:06 PM -10.4503 129.0117 317° Northwest 495 570 35,800  Level Aus ATC (RADAR)
Wed 09:57:16 PM -10.3269 128.8965 317° Northwest 494 568 35,800  Level Aus ATC (RADAR)
Wed 09:57:31 PM -10.3004 128.8720 318° Northwest 493 567 35,800  Level Aus ATC (RADAR)
Wed 09:58:11 PM -10.2317 128.8051 316° Northwest 491 565 35,800  Level Aus ATC (RADAR)
Wed 09:58:46 PM -10.1721 128.7463 316° Northwest 490 564 35,800  Level Aus ATC (RADAR)
Wed 09:59:51 PM -10.0577 128.6424 318° Northwest 487 560 35,800  Level Aus ATC (RADAR)
Wed 10:00:25 PM -9.9979 128.5848 316° Northwest 486 559 35,800  Level Aus ATC (RADAR)
Wed 10:01:05 PM -9.9302 128.5196 317° Northwest 484 557 35,800  Level Aus ATC (RADAR)
Wed 10:01:11 PM -9.9222 128.5120 317° Northwest 484 557 35,800 800 Level Aus ATC (RADAR)
Wed 10:02:50 PM -9.7502 128.3454 316° Northwest 491 565 37,200 857 Climbing Aus ATC (RADAR)
Wed 10:03:10 PM -9.7151 128.3159 320° Northwest 491 565 37,500 424 Climbing Aus ATC (RADAR)
Wed 10:04:15 PM -9.5983 128.2131 319° Northwest 496 571 37,800 200 Climbing Aus ATC (RADAR)
Wed 10:05:40 PM -9.4524 128.0677 315° West 494 568 38,000 100 Climbing Aus ATC (RADAR)
Wed 10:06:15 PM -9.3928 128.0107 317° Northwest 493 567 38,000  Level Aus ATC (RADAR)
Wed 10:08:00 PM -9.2860 127.9116 318° Northwest  Level FlightAware Approximate
Wed 10:15:00 PM -8.8575 127.5166 318° Northwest  Level FlightAware Approximate
Wed 10:16:00 PM -8.7961 127.4604 318° Northwest  Level FlightAware Approximate
Wed 10:17:00 PM -8.7347 127.4043 318° Northwest  Level FlightAware Approximate
Wed 10:18:00 PM -8.6733 127.3481 318° Northwest  Level FlightAware Approximate
Wed 10:19:00 PM -8.6119 127.2919 318° Northwest  Level FlightAware Approximate
Wed 10:20:00 PM -8.5506 127.2358 318° Northwest  Level FlightAware Approximate
Wed 10:21:00 PM -8.4891 127.1797 318° Northwest  Level FlightAware Approximate
Wed 10:22:00 PM -8.4277 127.1236 318° Northwest  Level FlightAware Approximate
Wed 10:23:00 PM -8.3663 127.0675 318° Northwest  Level FlightAware Approximate
Wed 10:24:00 PM -8.3049 127.0114 318° Northwest  Level FlightAware Approximate
Wed 10:25:00 PM -8.2434 126.9554 318° Northwest  Level FlightAware Approximate
Wed 10:26:00 PM -8.1820 126.8993 318° Northwest  Level FlightAware Approximate
Wed 10:27:00 PM -8.1205 126.8433 318° Northwest  Level FlightAware Approximate
Wed 10:28:00 PM -8.0590 126.7873 318° Northwest  Level FlightAware Approximate
Wed 10:29:00 PM -7.9976 126.7313 318° Northwest  Level FlightAware Approximate
Wed 10:30:00 PM -7.9361 126.6754 318° Northwest  Level FlightAware Approximate
Wed 10:31:00 PM -7.8746 126.6194 318° Northwest  Level FlightAware Approximate
Wed 10:32:00 PM -7.8131 126.5635 318° Northwest  Level FlightAware Approximate
Wed 10:33:00 PM -7.7516 126.5076 318° Northwest  Level FlightAware Approximate
Wed 10:34:00 PM -7.6901 126.4517 318° Northwest  Level FlightAware Approximate
Wed 10:35:00 PM -7.6286 126.3958 318° Northwest  Level FlightAware Approximate
Wed 10:36:00 PM -7.5670 126.3400 318° Northwest  Level FlightAware Approximate
Wed 10:37:00 PM -7.5055 126.2841 318° Northwest  Level FlightAware Approximate
Wed 10:38:00 PM -7.4440 126.2283 318° Northwest  Level FlightAware Approximate
Wed 10:39:00 PM -7.3824 126.1724 318° Northwest  Level FlightAware Approximate
Wed 10:40:00 PM -7.3209 126.1167 318° Northwest  Level FlightAware Approximate
Wed 10:41:00 PM -7.2593 126.0609 318° Northwest  Level FlightAware Approximate
Wed 10:42:00 PM -7.1978 126.0051 318° Northwest  Level FlightAware Approximate
Wed 10:43:00 PM -7.1362 125.9493 318° Northwest  Level FlightAware Approximate
Wed 10:44:00 PM -7.0746 125.8936 318° Northwest  Level FlightAware Approximate
Wed 10:45:00 PM -7.0130 125.8379 318° Northwest  Level FlightAware Approximate
Wed 10:46:00 PM -6.9514 125.7822 318° Northwest  Level FlightAware Approximate
Wed 10:47:00 PM -6.8898 125.7264 318° Northwest  Level FlightAware Approximate
Wed 10:48:00 PM -6.8282 125.6708 318° Northwest  Level FlightAware Approximate
Wed 10:49:00 PM -6.7666 125.6151 318° Northwest  Level FlightAware Approximate
Wed 10:50:00 PM -6.7050 125.5594 318° Northwest  Level FlightAware Approximate
Wed 10:51:00 PM -6.6434 125.5038 318° Northwest  Level FlightAware Approximate
Wed 10:52:00 PM -6.5817 125.4482 318° Northwest  Level FlightAware Approximate
Wed 10:53:00 PM -6.5201 125.3926 318° Northwest  Level FlightAware Approximate
Wed 10:54:00 PM -6.4584 125.3370 318° Northwest  Level FlightAware Approximate
Wed 10:55:00 PM -6.3968 125.2814 318° Northwest  Level FlightAware Approximate
Wed 10:56:00 PM -6.3351 125.2258 318° Northwest  Level FlightAware Approximate
Wed 10:57:00 PM -6.2735 125.1703 318° Northwest  Level FlightAware Approximate
Wed 10:58:00 PM -6.2118 125.1147 318° Northwest  Level FlightAware Approximate
Wed 10:59:00 PM -6.1501 125.0592 318° Northwest  Level FlightAware Approximate
Wed 11:00:00 PM -6.0884 125.0037 318° Northwest  Level FlightAware Approximate
Wed 11:01:00 PM -6.0268 124.9482 318° Northwest  Level FlightAware Approximate
Wed 11:02:00 PM -5.9651 124.8927 318° Northwest  Level FlightAware Approximate
Wed 11:03:00 PM -5.9034 124.8372 318° Northwest  Level FlightAware Approximate
Wed 11:04:00 PM -5.8417 124.7817 318° Northwest  Level FlightAware Approximate
Wed 11:05:00 PM -5.7800 124.7263 318° Northwest  Level FlightAware Approximate
Wed 11:06:00 PM -5.7183 124.6708 318° Northwest  Level FlightAware Approximate
Wed 11:07:00 PM -5.6565 124.6154 318° Northwest  Level FlightAware Approximate
Wed 11:08:00 PM -5.5948 124.5600 318° Northwest  Level FlightAware Approximate
Wed 11:09:00 PM -5.5331 124.5046 318° Northwest  Level FlightAware Approximate
Wed 11:10:00 PM -5.4714 124.4492 318° Northwest  Level FlightAware Approximate
Wed 11:11:00 PM -5.4096 124.3938 318° Northwest  Level FlightAware Approximate
Wed 11:12:00 PM -5.3479 124.3384 318° Northwest  Level FlightAware Approximate
Wed 11:13:00 PM -5.2861 124.2831 318° Northwest  Level FlightAware Approximate
Wed 11:14:00 PM -5.2244 124.2277 318° Northwest  Level FlightAware Approximate
Wed 11:15:00 PM -5.1626 124.1724 318° Northwest  Level FlightAware Approximate
Wed 11:16:00 PM -5.1009 124.1170 318° Northwest  Level FlightAware Approximate
Wed 11:17:00 PM -5.0391 124.0617 318° Northwest  Level FlightAware Approximate
Wed 11:18:00 PM -4.9773 124.0064 318° Northwest  Level FlightAware Approximate
Wed 11:19:00 PM -4.9158 123.9508 318° Northwest  Level FlightAware Approximate
Wed 11:20:00 PM -4.8543 123.8952 318° Northwest  Level FlightAware Approximate
Wed 11:21:00 PM -4.7928 123.8396 318° Northwest  Level FlightAware Approximate
Wed 11:22:00 PM -4.7313 123.7840 318° Northwest  Level FlightAware Approximate
Wed 11:23:00 PM -4.6698 123.7285 318° Northwest  Level FlightAware Approximate
Wed 11:24:00 PM -4.6083 123.6729 318° Northwest  Level FlightAware Approximate
Wed 11:25:00 PM -4.5467 123.6174 318° Northwest  Level FlightAware Approximate
Wed 11:26:00 PM -4.4852 123.5618 318° Northwest  Level FlightAware Approximate
Wed 11:27:00 PM -4.4237 123.5063 318° Northwest  Level FlightAware Approximate
Wed 11:28:00 PM -4.3621 123.4508 318° Northwest  Level FlightAware Approximate
Wed 11:29:00 PM -4.3006 123.3953 318° Northwest  Level FlightAware Approximate
Wed 11:30:00 PM -4.2390 123.3398 318° Northwest  Level FlightAware Approximate
Wed 11:31:00 PM -4.1775 123.2843 318° Northwest  Level FlightAware Approximate
Wed 11:32:00 PM -4.1160 123.2288 318° Northwest  Level FlightAware Approximate
Wed 11:33:00 PM -4.0544 123.1733 318° Northwest  Level FlightAware Approximate
Wed 11:34:00 PM -3.9928 123.1178 318° Northwest  Level FlightAware Approximate
Wed 11:35:00 PM -3.9313 123.0624 318° Northwest  Level FlightAware Approximate
Wed 11:36:00 PM -3.8697 123.0069 318° Northwest  Level FlightAware Approximate
Wed 11:37:00 PM -3.8081 122.9515 318° Northwest  Level FlightAware Approximate
Wed 11:38:00 PM -3.7465 122.8960 318° Northwest  Level FlightAware Approximate
Wed 11:39:00 PM -3.6850 122.8406 318° Northwest  Level FlightAware Approximate
Wed 11:40:00 PM -3.6234 122.7852 318° Northwest  Level FlightAware Approximate
Wed 11:41:00 PM -3.5618 122.7298 318° Northwest  Level FlightAware Approximate
Wed 11:42:00 PM -3.5002 122.6744 318° Northwest  Level FlightAware Approximate
Wed 11:43:00 PM -3.4386 122.6190 318° Northwest  Level FlightAware Approximate
Wed 11:44:00 PM -3.3770 122.5636 318° Northwest  Level FlightAware Approximate
Wed 11:45:00 PM -3.3154 122.5082 318° Northwest  Level FlightAware Approximate
Wed 11:46:00 PM -3.2538 122.4528 318° Northwest  Level FlightAware Approximate
Wed 11:47:00 PM -3.1922 122.3974 318° Northwest  Level FlightAware Approximate
Wed 11:48:00 PM -3.1306 122.3421 318° Northwest  Level FlightAware Approximate
Wed 11:49:00 PM -3.0690 122.2867 318° Northwest  Level FlightAware Approximate
Wed 11:50:00 PM -3.0074 122.2314 318° Northwest  Level FlightAware Approximate
Wed 11:51:00 PM -2.9457 122.1760 318° Northwest  Level FlightAware Approximate
Wed 11:52:00 PM -2.8841 122.1207 318° Northwest  Level FlightAware Approximate
Wed 11:53:00 PM -2.8225 122.0653 318° Northwest  Level FlightAware Approximate
Wed 11:54:00 PM -2.7609 122.0100 318° Northwest  Level FlightAware Approximate
Wed 11:55:00 PM -2.6993 121.9547 318° Northwest  Level FlightAware Approximate
Wed 11:56:00 PM -2.6376 121.8994 318° Northwest  Level FlightAware Approximate
Wed 11:57:00 PM -2.5760 121.8441 318° Northwest  Level FlightAware Approximate
Wed 11:58:00 PM -2.5144 121.7887 318° Northwest  Level FlightAware Approximate
Wed 11:59:00 PM -2.4527 121.7335 318° Northwest  Level FlightAware Approximate
Thu 12:00:00 AM -2.3911 121.6781 318° Northwest  Level FlightAware Approximate
Thu 12:01:00 AM -2.3294 121.6229 318° Northwest  Level FlightAware Approximate
Thu 12:02:00 AM -2.2678 121.5676 318° Northwest  Level FlightAware Approximate
Thu 12:03:00 AM -2.2062 121.5123 318° Northwest  Level FlightAware Approximate
Thu 12:04:00 AM -2.1445 121.4570 318° Northwest  Level FlightAware Approximate
Thu 12:05:00 AM -2.0829 121.4017 318° Northwest  Level FlightAware Approximate
Thu 12:06:00 AM -2.0212 121.3465 318° Northwest  Level FlightAware Approximate
Thu 12:07:00 AM -1.9596 121.2912 318° Northwest  Level FlightAware Approximate
Thu 12:08:00 AM -1.8979 121.2359 318° Northwest  Level FlightAware Approximate
Thu 12:09:00 AM -1.8362 121.1807 318° Northwest  Level FlightAware Approximate
Thu 12:10:00 AM -1.7746 121.1255 318° Northwest  Level FlightAware Approximate
Thu 12:11:00 AM -1.7129 121.0702 318° Northwest  Level FlightAware Approximate
Thu 12:11:07 AM 3.6182 116.2176 318° Northwest 500 575 38,000  Level FlightAware ADS-B (WBKK / BKI)
Thu 12:11:47 AM 3.6866 116.1547 317° Northwest 500 575 38,000  Level FlightAware ADS-B (WBKK / BKI)
Thu 12:12:24 AM 3.7492 116.0964 317° Northwest 500 575 38,000  Level FlightAware ADS-B (WBKK / BKI)
Thu 12:13:07 AM 3.8228 116.0287 317° Northwest 502 578 38,000  Level FlightAware ADS-B (WBKK / BKI)
Thu 12:13:42 AM 3.8840 115.9734 318° Northwest 502 578 38,000  Level FlightAware ADS-B (WBKK / BKI)
Thu 12:14:26 AM 3.9604 115.9023 317° Northwest 503 579 38,000  Level FlightAware ADS-B (WBKK / BKI)
Thu 12:15:07 AM 4.0293 115.8389 317° Northwest 505 581 38,000  Level FlightAware ADS-B (WBKK / BKI)
Thu 12:15:47 AM 4.0958 115.7734 316° Northwest 506 582 38,000  Level FlightAware ADS-B (WBKK / BKI)
Thu 12:16:26 AM 4.1566 115.7017 310° West 507 583 38,000  Level FlightAware ADS-B (WBKK / BKI)
Thu 12:17:07 AM 4.2154 115.6280 309° West 508 585 38,000  Level FlightAware ADS-B (WBKK / BKI)
Thu 12:17:46 AM 4.2729 115.5563 309° West 507 583 38,000  Level FlightAware ADS-B (WBKK / BKI)
Thu 12:18:27 AM 4.3331 115.4812 309° West 507 583 38,000  Level FlightAware ADS-B (WBKK / BKI)
Thu 12:19:07 AM 4.3904 115.4070 308° West 507 583 38,000  Level FlightAware ADS-B (WBKK / BKI)
Thu 12:19:46 AM 4.4480 115.3327 308° West 506 582 38,000  Level FlightAware ADS-B (WBKK / BKI)
Thu 12:20:27 AM 4.5057 115.2584 308° West 506 582 38,000  Level FlightAware ADS-B (WBKK / BKI)
Thu 12:21:06 AM 4.5633 115.1844 308° West 507 583 38,000  Level FlightAware ADS-B (WBKK / BKI)
Thu 12:21:47 AM 4.6212 115.1102 308° West 506 582 38,000  Level FlightAware ADS-B (WBKK / BKI)
Thu 12:22:27 AM 4.6803 115.0341 308° West 507 583 38,000  Level FlightAware ADS-B (WBKK / BKI)
Thu 12:23:08 AM 4.7376 114.9599 308° West 506 582 38,000  Level FlightAware ADS-B (WBKK / BKI)
Thu 12:23:47 AM 4.7953 114.8857 308° West 506 582 38,000  Level FlightAware ADS-B (WBKK / BKI)
Thu 12:24:28 AM 4.8530 114.8116 308° West 505 581 38,000  Level FlightAware ADS-B (WBKK / BKI)
Thu 12:25:08 AM 4.9105 114.7376 308° West 504 580 38,000  Level FlightAware ADS-B (WBKK / BKI)
Thu 12:25:47 AM 4.9673 114.6636 308° West 503 579 38,000  Level FlightAware ADS-B (WBKK / BKI)
Thu 12:26:28 AM 5.0247 114.5899 308° West 501 577 38,000  Level FlightAware ADS-B (WBKK / BKI)
Thu 12:27:07 AM 5.0814 114.5165 308° West 500 575 38,000  Level FlightAware ADS-B (WBKK / BKI)
Thu 12:27:48 AM 5.1385 114.4433 308° West 499 574 38,000  Level FlightAware ADS-B (WBKK / BKI)
Thu 12:28:27 AM 5.1933 114.3720 308° West 498 573 38,000  Level FlightAware ADS-B (WBKK / BKI)
Thu 12:29:08 AM 5.2516 114.2969 308° West 498 573 38,000  Level FlightAware ADS-B (WBKK / BKI)
Thu 12:29:48 AM 5.3080 114.2236 308° West 500 575 38,000  Level FlightAware ADS-B (WBKK / BKI)
Thu 12:30:28 AM 5.3664 114.1483 308° West 501 577 38,000  Level FlightAware ADS-B (WBKK / BKI)
Thu 12:31:08 AM 5.4219 114.0766 308° West 500 575 38,000  Level FlightAware ADS-B (WBKK / BKI)
Thu 12:31:47 AM 5.4786 114.0030 308° West 501 577 38,000  Level FlightAware ADS-B (WBKK / BKI)
Thu 12:32:28 AM 5.5354 113.9292 308° West 504 580 38,000  Level FlightAware ADS-B (WBKK / BKI)
Thu 12:33:09 AM 5.5946 113.8533 308° West 504 580 38,000  Level FlightAware ADS-B (WBKK / BKI)
Thu 12:33:48 AM 5.6513 113.7793 308° West 503 579 38,000  Level FlightAware ADS-B (WBKK / BKI)
Thu 12:34:28 AM 5.7083 113.7055 308° West 501 577 38,000  Level FlightAware ADS-B (WBKK / BKI)
Thu 12:35:09 AM 5.7654 113.6320 308° West 500 575 38,000  Level FlightAware ADS-B (WBKK / BKI)
Thu 12:35:49 AM 5.8222 113.5585 308° West 499 574 38,000  Level FlightAware ADS-B (WBKK / BKI)
Thu 12:36:29 AM 5.8796 113.4832 307° West 498 573 38,000  Level FlightAware ADS-B (WBKK / BKI)
Thu 12:37:08 AM 5.9347 113.4120 308° West 496 571 38,000  Level FlightAware ADS-B (WBKK / BKI)
Thu 12:37:48 AM 5.9907 113.3390 308° West 495 570 38,000  Level FlightAware ADS-B (WBKK / BKI)
Thu 12:38:29 AM 6.0452 113.2647 306° West 495 570 38,000  Level FlightAware ADS-B (WBKK / BKI)
Thu 12:39:08 AM 6.0980 113.1897 305° West 495 570 38,000  Level FlightAware ADS-B (WBKK / BKI)
Thu 12:39:49 AM 6.1520 113.1148 306° West 497 572 38,000  Level FlightAware ADS-B (WBKK / BKI)
Thu 12:40:28 AM 6.2058 113.0398 306° West 498 573 38,000  Level FlightAware ADS-B (WBKK / BKI)
Thu 12:41:08 AM 6.2600 112.9646 306° West 498 573 38,000  Level FlightAware ADS-B (WBKK / BKI)
Thu 12:41:49 AM 6.3144 112.8897 306° West 497 572 38,000  Level FlightAware ADS-B (WBKK / BKI)
Thu 12:42:29 AM 6.3696 112.8130 306° West 497 572 38,000  Level FlightAware ADS-B (WBKK / BKI)
Thu 12:43:15 AM 6.4307 112.7287 306° West 497 572 38,000  Level FlightAware ADS-B (WBKK / BKI)
Thu 12:48:48 AM 6.8733 112.1114 306° West 503 579 38,000  Level FlightAware ADS-B (WBKK / BKI)
Thu 12:51:00 AM 6.9794 111.9623 306° West  Level FlightAware Approximate
Thu 12:52:00 AM 7.0276 111.8945 306° West  Level FlightAware Approximate
Thu 12:53:00 AM 7.0758 111.8267 306° West  Level FlightAware Approximate
Thu 12:54:00 AM 7.1240 111.7589 306° West  Level FlightAware Approximate
Thu 12:55:00 AM 7.1721 111.6910 306° West  Level FlightAware Approximate
Thu 12:56:00 AM 7.2203 111.6232 306° West  Level FlightAware Approximate
Thu 12:57:00 AM 7.2684 111.5553 306° West  Level FlightAware Approximate
Thu 12:58:00 AM 7.3167 111.4875 306° West  Level FlightAware Approximate
Thu 12:59:00 AM 7.3649 111.4197 306° West  Level FlightAware Approximate
Thu 01:00:00 AM 7.4131 111.3518 306° West  Level FlightAware Approximate
Thu 01:01:00 AM 7.4614 111.2840 306° West  Level FlightAware Approximate
Thu 01:02:00 AM 7.5096 111.2161 306° West  Level FlightAware Approximate
Thu 01:03:00 AM 7.5578 111.1482 306° West  Level FlightAware Approximate
Thu 01:04:00 AM 7.6060 111.0804 306° West  Level FlightAware Approximate
Thu 01:05:00 AM 7.6542 111.0125 306° West  Level FlightAware Approximate
Thu 01:06:00 AM 7.7023 110.9445 306° West  Level FlightAware Approximate
Thu 01:07:00 AM 7.7505 110.8766 306° West  Level FlightAware Approximate
Thu 01:08:00 AM 7.7986 110.8086 306° West  Level FlightAware Approximate
Thu 01:09:00 AM 7.8468 110.7407 306° West  Level FlightAware Approximate
Thu 01:10:00 AM 7.8949 110.6727 306° West  Level FlightAware Approximate
Thu 01:11:00 AM 7.9430 110.6047 306° West  Level FlightAware Approximate
Thu 01:12:00 AM 7.9911 110.5367 306° West  Level FlightAware Approximate
Thu 01:13:00 AM 8.0392 110.4686 306° West  Level FlightAware Approximate
Thu 01:14:00 AM 8.0873 110.4006 306° West  Level FlightAware Approximate
Thu 01:15:00 AM 8.1354 110.3325 306° West  Level FlightAware Approximate
Thu 01:16:00 AM 8.1834 110.2644 306° West  Level FlightAware Approximate
Thu 01:17:00 AM 8.2315 110.1964 306° West  Level FlightAware Approximate
Thu 01:18:00 AM 8.2796 110.1283 306° West  Level FlightAware Approximate
Thu 01:19:00 AM 8.3278 110.0603 306° West  Level FlightAware Approximate
Thu 01:20:00 AM 8.3759 109.9922 306° West  Level FlightAware Approximate
Thu 01:21:00 AM 8.4240 109.9241 306° West  Level FlightAware Approximate
Thu 01:22:00 AM 8.4720 109.8560 306° West  Level FlightAware Approximate
Thu 01:23:00 AM 8.5201 109.7878 306° West  Level FlightAware Approximate
Thu 01:24:00 AM 8.5682 109.7197 306° West  Level FlightAware Approximate
Thu 01:25:00 AM 8.6162 109.6515 305° West  Level FlightAware Approximate
Thu 01:26:00 AM 8.6643 109.5834 305° West  Level FlightAware Approximate
Thu 01:27:00 AM 8.7123 109.5152 305° West  Level FlightAware Approximate
Thu 01:28:00 AM 8.7603 109.4469 305° West  Level FlightAware Approximate
Thu 01:29:00 AM 8.8083 109.3787 305° West  Level FlightAware Approximate
Thu 01:30:00 AM 8.8563 109.3104 305° West  Level FlightAware Approximate
Thu 01:31:00 AM 8.9042 109.2421 305° West  Level FlightAware Approximate
Thu 01:32:00 AM 8.9521 109.1737 305° West  Level FlightAware Approximate
Thu 01:33:00 AM 8.9999 109.1054 305° West  Level FlightAware Approximate
Thu 01:34:00 AM 9.0478 109.0370 305° West  Level FlightAware Approximate
Thu 01:35:00 AM 9.0956 108.9686 305° West  Level FlightAware Approximate
Thu 01:36:00 AM 9.1435 108.9002 305° West  Level FlightAware Approximate
Thu 01:37:00 AM 9.1913 108.8317 305° West  Level FlightAware Approximate
Thu 01:38:00 AM 9.2391 108.7633 305° West  Level FlightAware Approximate
Thu 01:39:00 AM 9.2869 108.6948 305° West  Level FlightAware Approximate
Thu 01:40:00 AM 9.3347 108.6263 305° West  Level FlightAware Approximate
Thu 01:41:00 AM 9.3824 108.5578 305° West  Level FlightAware Approximate
Thu 01:42:00 AM 9.4302 108.4893 305° West  Level FlightAware Approximate
Thu 01:43:00 AM 9.4787 108.4213 307° West  Level FlightAware Approximate
Thu 01:44:00 AM 9.5291 108.3547 307° West  Level FlightAware Approximate
Thu 01:45:00 AM 9.5794 108.2881 307° West  Level FlightAware Approximate
Thu 01:46:00 AM 9.6298 108.2215 307° West  Level FlightAware Approximate
Thu 01:47:00 AM 9.6801 108.1548 307° West  Level FlightAware Approximate
Thu 01:48:00 AM 9.7304 108.0881 307° West  Level FlightAware Approximate
Thu 01:49:00 AM 9.7807 108.0214 307° West  Level FlightAware Approximate
Thu 01:50:00 AM 9.8310 107.9547 307° West  Level FlightAware Approximate
Thu 01:51:00 AM 9.8813 107.8880 307° West  Level FlightAware Approximate
Thu 01:52:00 AM 9.9315 107.8212 307° West  Level FlightAware Approximate
Thu 01:53:00 AM 9.9818 107.7544 307° West  Level FlightAware Approximate
Thu 01:54:00 AM 10.0320 107.6876 307° West  Level FlightAware Approximate
Thu 01:55:00 AM 10.0822 107.6208 307° West  Level FlightAware Approximate
Thu 01:56:00 AM 10.1325 107.5539 307° West  Level FlightAware Approximate
Thu 01:57:00 AM 10.1829 107.4872 308° West  Level FlightAware Approximate
Thu 01:58:00 AM 10.2333 107.4205 308° West  Level FlightAware Approximate
Thu 01:59:00 AM 10.2836 107.3538 307° West  Level FlightAware Approximate
Thu 02:00:00 AM 10.3340 107.2870 307° West  Level FlightAware Approximate
Thu 02:01:00 AM 10.3844 107.2202 307° West  Level FlightAware Approximate
Thu 02:02:00 AM 10.4347 107.1534 307° West  Level FlightAware Approximate
Thu 02:03:00 AM 10.4850 107.0866 307° West  Level FlightAware Approximate
Thu 02:04:00 AM 10.5353 107.0197 307° West  Level FlightAware Approximate
Thu 02:05:00 AM 10.5857 106.9529 307° West  Level FlightAware Approximate
Thu 02:06:00 AM 10.6359 106.8860 307° West  Level FlightAware Approximate
Thu 02:07:00 AM 10.6862 106.8191 307° West  Level FlightAware Approximate
Thu 02:08:00 AM 10.7365 106.7521 307° West  Level FlightAware Approximate
Thu 02:09:00 AM 10.7867 106.6852 307° West  Level FlightAware Approximate
Thu 02:10:00 AM 10.8318 106.6149 297° West  Level FlightAware Approximate
Thu 02:11:00 AM 10.8695 106.5399 297° West  Level FlightAware Approximate
Thu 02:12:00 AM 10.9071 106.4648 297° West  Level FlightAware Approximate
Thu 02:13:00 AM 10.9447 106.3897 297° West  Level FlightAware Approximate
Thu 02:14:00 AM 10.9824 106.3146 297° West  Level FlightAware Approximate
Thu 02:15:00 AM 11.0199 106.2395 297° West  Level FlightAware Approximate
Thu 02:16:00 AM 11.0575 106.1643 297° West  Level FlightAware Approximate
Thu 02:17:00 AM 11.0951 106.0891 297° West  Level FlightAware Approximate
Thu 02:18:00 AM 11.1326 106.0139 297° West  Level FlightAware Approximate
Thu 02:19:00 AM 11.1701 105.9387 297° West  Level FlightAware Approximate
Thu 02:20:00 AM 11.2076 105.8635 297° West  Level FlightAware Approximate
Thu 02:21:00 AM 11.2451 105.7883 297° West  Level FlightAware Approximate
Thu 02:22:00 AM 11.2825 105.7130 297° West  Level FlightAware Approximate
Thu 02:23:00 AM 11.3200 105.6377 297° West  Level FlightAware Approximate
Thu 02:24:00 AM 11.3574 105.5624 297° West  Level FlightAware Approximate
Thu 02:25:00 AM 11.3948 105.4871 297° West  Level FlightAware Approximate
Thu 02:26:00 AM 11.4321 105.4118 297° West  Level FlightAware Approximate
Thu 02:27:00 AM 11.4695 105.3364 297° West  Level FlightAware Approximate
Thu 02:28:00 AM 11.5069 105.2610 297° West  Level FlightAware Approximate
Thu 02:29:00 AM 11.5442 105.1856 297° West  Level FlightAware Approximate
Thu 02:30:00 AM 11.5815 105.1102 297° West  Level FlightAware Approximate
Thu 02:31:00 AM 11.6187 105.0348 297° West  Level FlightAware Approximate
Thu 02:32:00 AM 11.6560 104.9593 297° West  Level FlightAware Approximate
Thu 02:33:00 AM 11.6932 104.8838 297° West  Level FlightAware Approximate
Thu 02:34:00 AM 11.7305 104.8083 297° West  Level FlightAware Approximate
Thu 02:35:00 AM 11.7677 104.7328 297° West  Level FlightAware Approximate
Thu 02:36:00 AM 11.8048 104.6572 297° West  Level FlightAware Approximate
Thu 02:37:00 AM 11.8420 104.5817 297° West  Level FlightAware Approximate
Thu 02:38:00 AM 11.8792 104.5061 297° West  Level FlightAware Approximate
Thu 02:39:00 AM 11.9163 104.4305 297° West  Level FlightAware Approximate
Thu 02:40:00 AM 11.9534 104.3548 297° West  Level FlightAware Approximate
Thu 02:41:00 AM 11.9904 104.2792 297° West  Level FlightAware Approximate
Thu 02:42:00 AM 12.0275 104.2035 297° West  Level FlightAware Approximate
Thu 02:43:00 AM 12.0646 104.1278 297° West  Level FlightAware Approximate
Thu 02:44:00 AM 12.1016 104.0521 297° West  Level FlightAware Approximate
Thu 02:45:00 AM 12.1386 103.9764 297° West  Level FlightAware Approximate
Thu 02:46:00 AM 12.1756 103.9006 297° West  Level FlightAware Approximate
Thu 02:47:00 AM 12.2125 103.8249 297° West  Level FlightAware Approximate
Thu 02:48:00 AM 12.2494 103.7491 297° West  Level FlightAware Approximate
Thu 02:49:00 AM 12.2864 103.6732 296° West  Level FlightAware Approximate
Thu 02:50:00 AM 12.3233 103.5974 296° West  Level FlightAware Approximate
Thu 02:51:00 AM 12.3602 103.5216 296° West  Level FlightAware Approximate
Thu 02:52:00 AM 12.3970 103.4457 296° West  Level FlightAware Approximate
Thu 02:53:00 AM 12.4338 103.3698 296° West  Level FlightAware Approximate
Thu 02:54:00 AM 12.4706 103.2939 296° West  Level FlightAware Approximate
Thu 02:55:00 AM 12.5074 103.2179 296° West  Level FlightAware Approximate
Thu 02:56:00 AM 12.5442 103.1419 296° West  Level FlightAware Approximate
Thu 02:57:00 AM 12.5809 103.0659 296° West  Level FlightAware Approximate
Thu 02:58:00 AM 12.6177 102.9899 296° West  Level FlightAware Approximate
Thu 02:59:00 AM 12.6544 102.9139 296° West  Level FlightAware Approximate
Thu 03:00:00 AM 12.6911 102.8379 296° West  Level FlightAware Approximate
Thu 03:01:00 AM 12.7277 102.7618 296° West  Level FlightAware Approximate
Thu 03:02:00 AM 12.7644 102.6857 296° West  Level FlightAware Approximate
Thu 03:03:00 AM 12.8010 102.6096 296° West  Level FlightAware Approximate
Thu 03:04:00 AM 12.8376 102.5334 296° West  Level FlightAware Approximate
Thu 03:05:00 AM 12.8742 102.4573 296° West  Level FlightAware Approximate
Thu 03:06:00 AM 12.9107 102.3811 296° West  Level FlightAware Approximate
Thu 03:07:00 AM 12.9473 102.3048 296° West  Level FlightAware Approximate
Thu 03:08:00 AM 12.9838 102.2286 296° West  Level FlightAware Approximate
Thu 03:09:00 AM 13.0203 102.1524 296° West  Level FlightAware Approximate
Thu 03:10:00 AM 13.0567 102.0761 296° West  Level FlightAware Approximate
Thu 03:11:00 AM 13.0932 101.9998 296° West  Level FlightAware Approximate
Thu 03:12:00 AM 13.1296 101.9235 296° West  Level FlightAware Approximate
Thu 03:13:00 AM 13.1660 101.8471 296° West  Level FlightAware Approximate
Thu 03:14:00 AM 13.2023 101.7708 296° West  Level FlightAware Approximate

Login

Don't have an account? Register now (free) for customized features, flight alerts, and more!